sensor_id;sensor_type;location;lat;lon;timestamp;P1;durP1;ratioP1;P2;durP2;ratioP2
22166;SDS011;11249;52.468;13.776;2023-04-29T00:00:42;11.80;;;7.95;;
22166;SDS011;11249;52.468;13.776;2023-04-29T00:03:09;12.57;;;8.05;;
22166;SDS011;11249;52.468;13.776;2023-04-29T00:05:36;10.30;;;8.38;;
22166;SDS011;11249;52.468;13.776;2023-04-29T00:08:03;11.32;;;8.68;;
22166;SDS011;11249;52.468;13.776;2023-04-29T00:10:30;11.77;;;7.85;;
22166;SDS011;11249;52.468;13.776;2023-04-29T00:12:57;9.30;;;7.88;;
22166;SDS011;11249;52.468;13.776;2023-04-29T00:15:24;16.38;;;8.18;;
22166;SDS011;11249;52.468;13.776;2023-04-29T00:17:51;10.90;;;7.40;;
22166;SDS011;11249;52.468;13.776;2023-04-29T00:20:18;10.95;;;8.45;;
22166;SDS011;11249;52.468;13.776;2023-04-29T00:22:44;14.23;;;8.05;;
22166;SDS011;11249;52.468;13.776;2023-04-29T00:25:12;10.55;;;8.63;;
22166;SDS011;11249;52.468;13.776;2023-04-29T00:27:38;13.60;;;9.10;;
22166;SDS011;11249;52.468;13.776;2023-04-29T00:30:06;12.73;;;8.75;;
22166;SDS011;11249;52.468;13.776;2023-04-29T00:32:33;12.48;;;8.40;;
22166;SDS011;11249;52.468;13.776;2023-04-29T00:35:00;12.07;;;9.13;;
22166;SDS011;11249;52.468;13.776;2023-04-29T00:37:27;15.85;;;9.20;;
22166;SDS011;11249;52.468;13.776;2023-04-29T00:39:54;10.20;;;9.13;;
22166;SDS011;11249;52.468;13.776;2023-04-29T00:42:20;14.27;;;8.40;;
22166;SDS011;11249;52.468;13.776;2023-04-29T00:44:47;12.10;;;8.85;;
22166;SDS011;11249;52.468;13.776;2023-04-29T00:47:14;9.50;;;8.50;;
22166;SDS011;11249;52.468;13.776;2023-04-29T00:49:40;11.35;;;8.57;;
22166;SDS011;11249;52.468;13.776;2023-04-29T00:52:07;10.70;;;8.50;;
22166;SDS011;11249;52.468;13.776;2023-04-29T00:54:36;9.70;;;8.70;;
22166;SDS011;11249;52.468;13.776;2023-04-29T00:57:04;11.48;;;8.45;;
22166;SDS011;11249;52.468;13.776;2023-04-29T00:59:32;12.80;;;8.40;;
22166;SDS011;11249;52.468;13.776;2023-04-29T01:02:00;8.95;;;7.45;;
22166;SDS011;11249;52.468;13.776;2023-04-29T01:04:29;11.30;;;8.93;;
22166;SDS011;11249;52.468;13.776;2023-04-29T01:15:09;11.82;;;8.63;;
22166;SDS011;11249;52.468;13.776;2023-04-29T01:18:08;10.15;;;9.05;;
22166;SDS011;11249;52.468;13.776;2023-04-29T01:20:39;11.38;;;8.38;;
22166;SDS011;11249;52.468;13.776;2023-04-29T01:23:07;10.38;;;8.48;;
22166;SDS011;11249;52.468;13.776;2023-04-29T01:25:33;11.30;;;8.45;;
22166;SDS011;11249;52.468;13.776;2023-04-29T01:28:03;13.63;;;8.13;;
22166;SDS011;11249;52.468;13.776;2023-04-29T01:30:41;9.88;;;8.55;;
22166;SDS011;11249;52.468;13.776;2023-04-29T01:33:16;10.75;;;8.05;;
22166;SDS011;11249;52.468;13.776;2023-04-29T01:36:07;12.68;;;8.13;;
22166;SDS011;11249;52.468;13.776;2023-04-29T01:39:08;12.23;;;8.43;;
22166;SDS011;11249;52.468;13.776;2023-04-29T01:42:01;11.23;;;8.97;;
22166;SDS011;11249;52.468;13.776;2023-04-29T01:44:39;10.02;;;8.32;;
22166;SDS011;11249;52.468;13.776;2023-04-29T01:47:07;11.50;;;8.50;;
22166;SDS011;11249;52.468;13.776;2023-04-29T01:49:38;9.30;;;8.02;;
22166;SDS011;11249;52.468;13.776;2023-04-29T01:52:05;14.55;;;10.00;;
22166;SDS011;11249;52.468;13.776;2023-04-29T01:54:32;9.88;;;7.80;;
22166;SDS011;11249;52.468;13.776;2023-04-29T01:57:02;11.60;;;8.10;;
22166;SDS011;11249;52.468;13.776;2023-04-29T01:59:29;12.68;;;9.35;;
22166;SDS011;11249;52.468;13.776;2023-04-29T02:01:56;10.00;;;7.90;;
22166;SDS011;11249;52.468;13.776;2023-04-29T02:04:24;11.00;;;9.77;;
22166;SDS011;11249;52.468;13.776;2023-04-29T02:06:51;11.55;;;9.63;;
22166;SDS011;11249;52.468;13.776;2023-04-29T02:09:18;12.20;;;8.88;;
22166;SDS011;11249;52.468;13.776;2023-04-29T02:11:44;11.20;;;9.15;;
22166;SDS011;11249;52.468;13.776;2023-04-29T02:14:11;10.63;;;9.15;;
22166;SDS011;11249;52.468;13.776;2023-04-29T02:16:38;13.18;;;9.57;;
22166;SDS011;11249;52.468;13.776;2023-04-29T02:19:05;12.73;;;8.77;;
22166;SDS011;11249;52.468;13.776;2023-04-29T02:21:31;12.60;;;9.88;;
22166;SDS011;11249;52.468;13.776;2023-04-29T02:24:00;13.25;;;10.30;;
22166;SDS011;11249;52.468;13.776;2023-04-29T02:26:27;14.02;;;9.43;;
22166;SDS011;11249;52.468;13.776;2023-04-29T02:28:54;12.98;;;10.73;;
22166;SDS011;11249;52.468;13.776;2023-04-29T02:31:22;11.18;;;10.07;;
22166;SDS011;11249;52.468;13.776;2023-04-29T02:33:49;18.83;;;11.07;;
22166;SDS011;11249;52.468;13.776;2023-04-29T02:36:15;11.65;;;10.45;;
22166;SDS011;11249;52.468;13.776;2023-04-29T02:38:43;12.27;;;10.18;;
22166;SDS011;11249;52.468;13.776;2023-04-29T02:41:14;11.30;;;10.20;;
22166;SDS011;11249;52.468;13.776;2023-04-29T02:43:42;13.93;;;10.93;;
22166;SDS011;11249;52.468;13.776;2023-04-29T02:46:09;12.95;;;11.55;;
22166;SDS011;11249;52.468;13.776;2023-04-29T02:48:36;16.13;;;11.15;;
22166;SDS011;11249;52.468;13.776;2023-04-29T02:51:03;16.10;;;11.98;;
22166;SDS011;11249;52.468;13.776;2023-04-29T02:53:30;12.55;;;10.88;;
22166;SDS011;11249;52.468;13.776;2023-04-29T02:55:56;16.02;;;11.15;;
22166;SDS011;11249;52.468;13.776;2023-04-29T02:58:23;13.68;;;11.13;;
22166;SDS011;11249;52.468;13.776;2023-04-29T03:00:50;15.68;;;11.80;;
22166;SDS011;11249;52.468;13.776;2023-04-29T03:03:17;13.95;;;11.13;;
22166;SDS011;11249;52.468;13.776;2023-04-29T03:05:43;15.50;;;12.57;;
22166;SDS011;11249;52.468;13.776;2023-04-29T03:08:10;15.48;;;12.05;;
22166;SDS011;11249;52.468;13.776;2023-04-29T03:10:37;16.67;;;11.55;;
22166;SDS011;11249;52.468;13.776;2023-04-29T03:13:06;16.67;;;12.13;;
22166;SDS011;11249;52.468;13.776;2023-04-29T03:15:33;15.57;;;12.40;;
22166;SDS011;11249;52.468;13.776;2023-04-29T03:18:00;14.07;;;11.93;;
22166;SDS011;11249;52.468;13.776;2023-04-29T03:20:29;16.85;;;12.90;;
22166;SDS011;11249;52.468;13.776;2023-04-29T03:22:55;20.20;;;13.32;;
22166;SDS011;11249;52.468;13.776;2023-04-29T03:25:23;16.50;;;12.95;;
22166;SDS011;11249;52.468;13.776;2023-04-29T03:27:49;18.50;;;13.48;;
22166;SDS011;11249;52.468;13.776;2023-04-29T03:30:16;16.85;;;13.00;;
22166;SDS011;11249;52.468;13.776;2023-04-29T03:32:43;15.45;;;13.48;;
22166;SDS011;11249;52.468;13.776;2023-04-29T03:35:10;18.80;;;14.43;;
22166;SDS011;11249;52.468;13.776;2023-04-29T03:37:40;17.80;;;14.23;;
22166;SDS011;11249;52.468;13.776;2023-04-29T03:40:10;16.53;;;14.73;;
22166;SDS011;11249;52.468;13.776;2023-04-29T03:42:37;15.82;;;13.98;;
22166;SDS011;11249;52.468;13.776;2023-04-29T03:45:04;19.23;;;14.05;;
22166;SDS011;11249;52.468;13.776;2023-04-29T03:47:31;18.08;;;15.57;;
22166;SDS011;11249;52.468;13.776;2023-04-29T03:49:58;22.10;;;16.08;;
22166;SDS011;11249;52.468;13.776;2023-04-29T03:52:25;19.25;;;16.35;;
22166;SDS011;11249;52.468;13.776;2023-04-29T03:54:52;19.95;;;15.05;;
22166;SDS011;11249;52.468;13.776;2023-04-29T03:57:18;21.13;;;15.65;;
22166;SDS011;11249;52.468;13.776;2023-04-29T03:59:45;19.10;;;16.70;;
22166;SDS011;11249;52.468;13.776;2023-04-29T04:02:16;24.30;;;18.10;;
22166;SDS011;11249;52.468;13.776;2023-04-29T04:04:42;20.88;;;15.77;;
22166;SDS011;11249;52.468;13.776;2023-04-29T04:07:09;22.95;;;17.02;;
22166;SDS011;11249;52.468;13.776;2023-04-29T04:09:36;19.77;;;17.42;;
22166;SDS011;11249;52.468;13.776;2023-04-29T04:12:03;21.73;;;18.27;;
22166;SDS011;11249;52.468;13.776;2023-04-29T04:14:31;22.98;;;17.00;;
22166;SDS011;11249;52.468;13.776;2023-04-29T04:16:58;20.70;;;16.85;;
22166;SDS011;11249;52.468;13.776;2023-04-29T04:19:25;21.80;;;18.08;;
22166;SDS011;11249;52.468;13.776;2023-04-29T04:21:52;24.05;;;18.27;;
22166;SDS011;11249;52.468;13.776;2023-04-29T04:24:19;20.52;;;18.27;;
22166;SDS011;11249;52.468;13.776;2023-04-29T04:26:46;24.35;;;17.38;;
22166;SDS011;11249;52.468;13.776;2023-04-29T04:29:12;23.27;;;18.90;;
22166;SDS011;11249;52.468;13.776;2023-04-29T04:31:39;22.08;;;18.58;;
22166;SDS011;11249;52.468;13.776;2023-04-29T04:34:06;20.83;;;18.15;;
22166;SDS011;11249;52.468;13.776;2023-04-29T04:36:32;22.10;;;19.13;;
22166;SDS011;11249;52.468;13.776;2023-04-29T04:38:59;22.45;;;19.50;;
22166;SDS011;11249;52.468;13.776;2023-04-29T04:41:26;24.63;;;19.45;;
22166;SDS011;11249;52.468;13.776;2023-04-29T04:43:52;21.80;;;18.60;;
22166;SDS011;11249;52.468;13.776;2023-04-29T04:46:19;26.02;;;20.75;;
22166;SDS011;11249;52.468;13.776;2023-04-29T04:48:46;24.33;;;19.73;;
22166;SDS011;11249;52.468;13.776;2023-04-29T04:51:13;24.40;;;19.75;;
22166;SDS011;11249;52.468;13.776;2023-04-29T04:53:39;24.77;;;19.58;;
22166;SDS011;11249;52.468;13.776;2023-04-29T04:56:06;22.95;;;19.42;;
22166;SDS011;11249;52.468;13.776;2023-04-29T04:58:33;24.25;;;19.90;;
22166;SDS011;11249;52.468;13.776;2023-04-29T05:01:00;25.27;;;20.52;;
22166;SDS011;11249;52.468;13.776;2023-04-29T05:03:27;26.02;;;21.23;;
22166;SDS011;11249;52.468;13.776;2023-04-29T05:05:54;29.42;;;22.05;;
22166;SDS011;11249;52.468;13.776;2023-04-29T05:08:25;25.33;;;20.70;;
22166;SDS011;11249;52.468;13.776;2023-04-29T05:10:52;27.60;;;22.33;;
22166;SDS011;11249;52.468;13.776;2023-04-29T05:13:19;25.90;;;21.20;;
22166;SDS011;11249;52.468;13.776;2023-04-29T05:15:46;27.23;;;22.20;;
22166;SDS011;11249;52.468;13.776;2023-04-29T05:18:13;25.55;;;20.92;;
22166;SDS011;11249;52.468;13.776;2023-04-29T05:20:40;26.67;;;22.25;;
22166;SDS011;11249;52.468;13.776;2023-04-29T05:23:06;28.55;;;21.95;;
22166;SDS011;11249;52.468;13.776;2023-04-29T05:25:34;30.52;;;23.58;;
22166;SDS011;11249;52.468;13.776;2023-04-29T05:28:01;25.40;;;22.63;;
22166;SDS011;11249;52.468;13.776;2023-04-29T05:30:28;25.63;;;22.67;;
22166;SDS011;11249;52.468;13.776;2023-04-29T05:32:55;27.58;;;22.55;;
22166;SDS011;11249;52.468;13.776;2023-04-29T05:35:21;28.88;;;23.70;;
22166;SDS011;11249;52.468;13.776;2023-04-29T05:37:48;30.60;;;24.55;;
22166;SDS011;11249;52.468;13.776;2023-04-29T05:40:15;29.75;;;23.92;;
22166;SDS011;11249;52.468;13.776;2023-04-29T05:42:42;30.70;;;25.38;;
22166;SDS011;11249;52.468;13.776;2023-04-29T05:45:09;30.60;;;23.00;;
22166;SDS011;11249;52.468;13.776;2023-04-29T05:47:35;28.08;;;23.65;;
22166;SDS011;11249;52.468;13.776;2023-04-29T05:50:03;29.30;;;24.52;;
22166;SDS011;11249;52.468;13.776;2023-04-29T05:52:29;39.42;;;26.30;;
22166;SDS011;11249;52.468;13.776;2023-04-29T05:54:56;32.85;;;23.98;;
22166;SDS011;11249;52.468;13.776;2023-04-29T05:57:23;31.15;;;25.85;;
22166;SDS011;11249;52.468;13.776;2023-04-29T05:59:50;32.25;;;25.73;;
22166;SDS011;11249;52.468;13.776;2023-04-29T06:02:16;34.83;;;25.67;;
22166;SDS011;11249;52.468;13.776;2023-04-29T06:04:43;30.67;;;26.92;;
22166;SDS011;11249;52.468;13.776;2023-04-29T06:07:13;34.53;;;26.73;;
22166;SDS011;11249;52.468;13.776;2023-04-29T06:09:39;36.05;;;26.58;;
22166;SDS011;11249;52.468;13.776;2023-04-29T06:12:07;38.35;;;29.88;;
22166;SDS011;11249;52.468;13.776;2023-04-29T06:14:34;36.40;;;28.48;;
22166;SDS011;11249;52.468;13.776;2023-04-29T06:17:01;50.20;;;39.80;;
22166;SDS011;11249;52.468;13.776;2023-04-29T06:19:28;42.97;;;31.98;;
22166;SDS011;11249;52.468;13.776;2023-04-29T06:21:57;44.30;;;33.85;;
22166;SDS011;11249;52.468;13.776;2023-04-29T06:24:24;50.03;;;38.28;;
22166;SDS011;11249;52.468;13.776;2023-04-29T06:26:51;44.00;;;32.55;;
22166;SDS011;11249;52.468;13.776;2023-04-29T06:29:17;38.75;;;30.92;;
22166;SDS011;11249;52.468;13.776;2023-04-29T06:31:44;44.03;;;31.17;;
22166;SDS011;11249;52.468;13.776;2023-04-29T06:34:11;42.17;;;32.20;;
22166;SDS011;11249;52.468;13.776;2023-04-29T06:36:38;42.10;;;31.50;;
22166;SDS011;11249;52.468;13.776;2023-04-29T06:39:05;41.35;;;31.55;;
22166;SDS011;11249;52.468;13.776;2023-04-29T06:41:32;42.78;;;31.50;;
22166;SDS011;11249;52.468;13.776;2023-04-29T06:43:59;41.53;;;30.50;;
22166;SDS011;11249;52.468;13.776;2023-04-29T06:46:26;43.22;;;32.40;;
22166;SDS011;11249;52.468;13.776;2023-04-29T06:48:54;43.67;;;33.10;;
22166;SDS011;11249;52.468;13.776;2023-04-29T06:51:21;39.17;;;31.08;;
22166;SDS011;11249;52.468;13.776;2023-04-29T06:53:47;48.28;;;32.90;;
22166;SDS011;11249;52.468;13.776;2023-04-29T06:56:14;42.05;;;31.60;;
22166;SDS011;11249;52.468;13.776;2023-04-29T06:58:42;50.45;;;33.75;;
22166;SDS011;11249;52.468;13.776;2023-04-29T07:01:09;44.40;;;32.78;;
22166;SDS011;11249;52.468;13.776;2023-04-29T07:03:36;50.17;;;34.40;;
22166;SDS011;11249;52.468;13.776;2023-04-29T07:06:03;45.50;;;32.28;;
22166;SDS011;11249;52.468;13.776;2023-04-29T07:08:30;48.72;;;33.75;;
22166;SDS011;11249;52.468;13.776;2023-04-29T07:10:57;48.05;;;35.05;;
22166;SDS011;11249;52.468;13.776;2023-04-29T07:13:24;47.15;;;33.50;;
22166;SDS011;11249;52.468;13.776;2023-04-29T07:15:51;49.22;;;33.95;;
22166;SDS011;11249;52.468;13.776;2023-04-29T07:18:18;46.70;;;32.95;;
22166;SDS011;11249;52.468;13.776;2023-04-29T07:20:44;47.55;;;34.95;;
22166;SDS011;11249;52.468;13.776;2023-04-29T07:23:13;44.30;;;31.63;;
22166;SDS011;11249;52.468;13.776;2023-04-29T07:25:40;49.38;;;33.22;;
22166;SDS011;11249;52.468;13.776;2023-04-29T07:28:06;43.47;;;31.65;;
22166;SDS011;11249;52.468;13.776;2023-04-29T07:30:34;44.08;;;32.95;;
22166;SDS011;11249;52.468;13.776;2023-04-29T07:33:01;51.72;;;35.17;;
22166;SDS011;11249;52.468;13.776;2023-04-29T07:35:29;44.83;;;31.92;;
22166;SDS011;11249;52.468;13.776;2023-04-29T07:37:56;47.80;;;33.00;;
22166;SDS011;11249;52.468;13.776;2023-04-29T07:40:23;45.67;;;32.28;;
22166;SDS011;11249;52.468;13.776;2023-04-29T07:42:50;43.25;;;31.40;;
22166;SDS011;11249;52.468;13.776;2023-04-29T07:45:17;43.58;;;31.67;;
22166;SDS011;11249;52.468;13.776;2023-04-29T07:47:43;44.42;;;31.55;;
22166;SDS011;11249;52.468;13.776;2023-04-29T07:50:11;42.45;;;31.77;;
22166;SDS011;11249;52.468;13.776;2023-04-29T07:52:38;42.83;;;30.73;;
22166;SDS011;11249;52.468;13.776;2023-04-29T07:55:04;45.10;;;33.25;;
22166;SDS011;11249;52.468;13.776;2023-04-29T07:57:31;45.83;;;31.58;;
22166;SDS011;11249;52.468;13.776;2023-04-29T07:59:58;39.50;;;28.67;;
22166;SDS011;11249;52.468;13.776;2023-04-29T08:02:25;41.63;;;28.05;;
22166;SDS011;11249;52.468;13.776;2023-04-29T08:04:52;40.00;;;28.33;;
22166;SDS011;11249;52.468;13.776;2023-04-29T08:07:21;37.70;;;25.33;;
22166;SDS011;11249;52.468;13.776;2023-04-29T08:09:48;25.70;;;19.75;;
22166;SDS011;11249;52.468;13.776;2023-04-29T08:12:15;27.48;;;20.85;;
22166;SDS011;11249;52.468;13.776;2023-04-29T08:14:41;28.25;;;19.38;;
22166;SDS011;11249;52.468;13.776;2023-04-29T08:17:08;27.48;;;20.83;;
22166;SDS011;11249;52.468;13.776;2023-04-29T08:19:35;26.90;;;19.42;;
22166;SDS011;11249;52.468;13.776;2023-04-29T08:22:02;28.30;;;18.35;;
22166;SDS011;11249;52.468;13.776;2023-04-29T08:24:29;25.98;;;18.98;;
22166;SDS011;11249;52.468;13.776;2023-04-29T08:26:56;22.73;;;17.48;;
22166;SDS011;11249;52.468;13.776;2023-04-29T08:29:24;26.52;;;17.80;;
22166;SDS011;11249;52.468;13.776;2023-04-29T08:31:51;24.67;;;17.65;;
22166;SDS011;11249;52.468;13.776;2023-04-29T08:34:18;23.05;;;17.83;;
22166;SDS011;11249;52.468;13.776;2023-04-29T08:36:44;23.40;;;18.40;;
22166;SDS011;11249;52.468;13.776;2023-04-29T08:39:11;23.88;;;18.67;;
22166;SDS011;11249;52.468;13.776;2023-04-29T08:41:38;26.27;;;18.95;;
22166;SDS011;11249;52.468;13.776;2023-04-29T08:44:04;31.95;;;19.25;;
22166;SDS011;11249;52.468;13.776;2023-04-29T08:46:32;21.23;;;17.55;;
22166;SDS011;11249;52.468;13.776;2023-04-29T08:48:58;18.13;;;14.63;;
22166;SDS011;11249;52.468;13.776;2023-04-29T08:51:29;19.92;;;15.07;;
22166;SDS011;11249;52.468;13.776;2023-04-29T08:53:57;15.88;;;12.73;;
22166;SDS011;11249;52.468;13.776;2023-04-29T08:56:24;16.88;;;13.05;;
22166;SDS011;11249;52.468;13.776;2023-04-29T08:58:53;14.05;;;12.48;;
22166;SDS011;11249;52.468;13.776;2023-04-29T09:01:26;13.23;;;11.80;;
22166;SDS011;11249;52.468;13.776;2023-04-29T09:04:06;13.15;;;10.73;;
22166;SDS011;11249;52.468;13.776;2023-04-29T09:06:40;12.13;;;10.90;;
22166;SDS011;11249;52.468;13.776;2023-04-29T09:09:07;15.80;;;11.52;;
22166;SDS011;11249;52.468;13.776;2023-04-29T09:11:34;12.55;;;11.13;;
22166;SDS011;11249;52.468;13.776;2023-04-29T09:14:02;16.30;;;13.00;;
22166;SDS011;11249;52.468;13.776;2023-04-29T09:16:33;15.02;;;13.35;;
22166;SDS011;11249;52.468;13.776;2023-04-29T09:19:02;16.25;;;13.65;;
22166;SDS011;11249;52.468;13.776;2023-04-29T09:21:29;18.17;;;13.93;;
22166;SDS011;11249;52.468;13.776;2023-04-29T09:23:59;19.42;;;15.48;;
22166;SDS011;11249;52.468;13.776;2023-04-29T09:26:27;21.98;;;15.50;;
22166;SDS011;11249;52.468;13.776;2023-04-29T09:29:09;21.40;;;16.83;;
22166;SDS011;11249;52.468;13.776;2023-04-29T09:31:39;22.27;;;18.60;;
22166;SDS011;11249;52.468;13.776;2023-04-29T09:34:07;21.80;;;17.65;;
22166;SDS011;11249;52.468;13.776;2023-04-29T09:39:03;26.83;;;20.00;;
22166;SDS011;11249;52.468;13.776;2023-04-29T09:41:37;25.33;;;20.67;;
22166;SDS011;11249;52.468;13.776;2023-04-29T09:44:05;26.57;;;21.27;;
22166;SDS011;11249;52.468;13.776;2023-04-29T09:46:33;24.35;;;20.90;;
22166;SDS011;11249;52.468;13.776;2023-04-29T09:49:02;25.33;;;19.88;;
22166;SDS011;11249;52.468;13.776;2023-04-29T09:51:32;23.90;;;18.85;;
22166;SDS011;11249;52.468;13.776;2023-04-29T09:54:19;20.58;;;18.38;;
22166;SDS011;11249;52.468;13.776;2023-04-29T09:59:17;21.65;;;17.08;;
22166;SDS011;11249;52.468;13.776;2023-04-29T10:01:46;21.20;;;17.80;;
22166;SDS011;11249;52.468;13.776;2023-04-29T10:04:15;23.20;;;18.73;;
22166;SDS011;11249;52.468;13.776;2023-04-29T10:06:43;23.48;;;19.65;;
22166;SDS011;11249;52.468;13.776;2023-04-29T10:09:15;28.42;;;21.77;;
22166;SDS011;11249;52.468;13.776;2023-04-29T10:11:43;31.75;;;24.40;;
22166;SDS011;11249;52.468;13.776;2023-04-29T10:14:11;35.95;;;27.17;;
22166;SDS011;11249;52.468;13.776;2023-04-29T10:17:01;37.75;;;27.13;;
22166;SDS011;11249;52.468;13.776;2023-04-29T10:19:32;43.95;;;28.05;;
22166;SDS011;11249;52.468;13.776;2023-04-29T10:22:08;43.45;;;30.65;;
22166;SDS011;11249;52.468;13.776;2023-04-29T10:24:37;42.20;;;30.90;;
22166;SDS011;11249;52.468;13.776;2023-04-29T10:27:09;46.33;;;32.78;;
22166;SDS011;11249;52.468;13.776;2023-04-29T10:29:38;41.25;;;29.80;;
22166;SDS011;11249;52.468;13.776;2023-04-29T10:32:07;49.88;;;33.88;;
22166;SDS011;11249;52.468;13.776;2023-04-29T10:34:37;57.85;;;36.08;;
22166;SDS011;11249;52.468;13.776;2023-04-29T10:37:10;59.60;;;38.97;;
22166;SDS011;11249;52.468;13.776;2023-04-29T10:42:35;60.55;;;39.05;;
22166;SDS011;11249;52.468;13.776;2023-04-29T10:45:20;58.25;;;38.72;;
22166;SDS011;11249;52.468;13.776;2023-04-29T10:53:10;68.80;;;44.85;;
22166;SDS011;11249;52.468;13.776;2023-04-29T10:55:37;69.50;;;44.58;;
22166;SDS011;11249;52.468;13.776;2023-04-29T10:58:04;70.15;;;46.60;;
22166;SDS011;11249;52.468;13.776;2023-04-29T11:00:32;72.35;;;46.33;;
22166;SDS011;11249;52.468;13.776;2023-04-29T11:03:00;68.18;;;46.95;;
22166;SDS011;11249;52.468;13.776;2023-04-29T11:05:30;69.22;;;47.42;;
22166;SDS011;11249;52.468;13.776;2023-04-29T11:08:14;68.63;;;46.80;;
22166;SDS011;11249;52.468;13.776;2023-04-29T11:10:52;73.47;;;48.33;;
22166;SDS011;11249;52.468;13.776;2023-04-29T11:13:26;67.65;;;48.42;;
22166;SDS011;11249;52.468;13.776;2023-04-29T11:16:02;70.15;;;47.45;;
22166;SDS011;11249;52.468;13.776;2023-04-29T11:19:03;64.88;;;48.30;;
22166;SDS011;11249;52.468;13.776;2023-04-29T11:21:30;68.22;;;47.83;;
22166;SDS011;11249;52.468;13.776;2023-04-29T11:23:58;68.45;;;46.42;;
22166;SDS011;11249;52.468;13.776;2023-04-29T11:26:26;62.60;;;44.90;;
22166;SDS011;11249;52.468;13.776;2023-04-29T11:28:53;63.88;;;46.00;;
22166;SDS011;11249;52.468;13.776;2023-04-29T11:31:24;62.05;;;47.17;;
22166;SDS011;11249;52.468;13.776;2023-04-29T11:33:58;62.78;;;46.22;;
22166;SDS011;11249;52.468;13.776;2023-04-29T11:36:25;64.40;;;43.65;;
22166;SDS011;11249;52.468;13.776;2023-04-29T11:38:52;57.17;;;41.85;;
22166;SDS011;11249;52.468;13.776;2023-04-29T11:41:19;54.47;;;40.92;;
22166;SDS011;11249;52.468;13.776;2023-04-29T11:43:53;49.05;;;37.38;;
22166;SDS011;11249;52.468;13.776;2023-04-29T11:46:22;45.58;;;37.03;;
22166;SDS011;11249;52.468;13.776;2023-04-29T11:48:50;44.97;;;34.50;;
22166;SDS011;11249;52.468;13.776;2023-04-29T11:51:17;47.50;;;35.63;;
22166;SDS011;11249;52.468;13.776;2023-04-29T11:53:45;43.65;;;35.05;;
22166;SDS011;11249;52.468;13.776;2023-04-29T11:56:11;50.42;;;36.65;;
22166;SDS011;11249;52.468;13.776;2023-04-29T11:58:38;44.78;;;36.95;;
22166;SDS011;11249;52.468;13.776;2023-04-29T12:01:07;48.10;;;35.38;;
22166;SDS011;11249;52.468;13.776;2023-04-29T12:03:33;44.40;;;34.53;;
22166;SDS011;11249;52.468;13.776;2023-04-29T12:06:02;47.95;;;35.50;;
22166;SDS011;11249;52.468;13.776;2023-04-29T12:08:29;41.47;;;32.08;;
22166;SDS011;11249;52.468;13.776;2023-04-29T12:10:57;36.65;;;30.55;;
22166;SDS011;11249;52.468;13.776;2023-04-29T12:13:28;37.67;;;30.17;;
22166;SDS011;11249;52.468;13.776;2023-04-29T12:15:56;34.20;;;28.95;;
22166;SDS011;11249;52.468;13.776;2023-04-29T12:18:24;32.72;;;27.60;;
22166;SDS011;11249;52.468;13.776;2023-04-29T12:20:52;41.83;;;29.00;;
22166;SDS011;11249;52.468;13.776;2023-04-29T12:23:23;34.88;;;28.48;;
22166;SDS011;11249;52.468;13.776;2023-04-29T12:25:58;29.10;;;25.70;;
22166;SDS011;11249;52.468;13.776;2023-04-29T12:28:25;31.05;;;24.35;;
22166;SDS011;11249;52.468;13.776;2023-04-29T12:30:53;27.45;;;23.25;;
22166;SDS011;11249;52.468;13.776;2023-04-29T12:33:23;25.70;;;22.75;;
22166;SDS011;11249;52.468;13.776;2023-04-29T12:35:54;27.00;;;21.38;;
22166;SDS011;11249;52.468;13.776;2023-04-29T12:40:52;23.95;;;19.92;;
22166;SDS011;11249;52.468;13.776;2023-04-29T12:43:27;23.23;;;19.27;;
22166;SDS011;11249;52.468;13.776;2023-04-29T12:45:59;24.83;;;18.95;;
22166;SDS011;11249;52.468;13.776;2023-04-29T12:48:31;23.90;;;19.70;;
22166;SDS011;11249;52.468;13.776;2023-04-29T12:50:59;25.05;;;19.38;;
22166;SDS011;11249;52.468;13.776;2023-04-29T12:53:30;23.50;;;18.55;;
22166;SDS011;11249;52.468;13.776;2023-04-29T12:55:57;20.00;;;17.42;;
22166;SDS011;11249;52.468;13.776;2023-04-29T12:58:24;21.77;;;17.60;;
22166;SDS011;11249;52.468;13.776;2023-04-29T13:00:54;24.60;;;17.10;;
22166;SDS011;11249;52.468;13.776;2023-04-29T13:03:21;18.98;;;16.33;;
22166;SDS011;11249;52.468;13.776;2023-04-29T13:05:49;21.33;;;16.58;;
22166;SDS011;11249;52.468;13.776;2023-04-29T13:08:19;21.20;;;16.73;;
22166;SDS011;11249;52.468;13.776;2023-04-29T13:10:46;24.23;;;16.88;;
22166;SDS011;11249;52.468;13.776;2023-04-29T13:13:13;20.08;;;15.65;;
22166;SDS011;11249;52.468;13.776;2023-04-29T13:15:39;18.73;;;15.63;;
22166;SDS011;11249;52.468;13.776;2023-04-29T13:18:06;21.38;;;15.18;;
22166;SDS011;11249;52.468;13.776;2023-04-29T13:20:33;20.77;;;15.88;;
22166;SDS011;11249;52.468;13.776;2023-04-29T13:23:07;22.83;;;17.30;;
22166;SDS011;11249;52.468;13.776;2023-04-29T13:25:35;20.17;;;16.65;;
22166;SDS011;11249;52.468;13.776;2023-04-29T13:28:02;22.58;;;16.58;;
22166;SDS011;11249;52.468;13.776;2023-04-29T13:30:30;25.75;;;16.75;;
22166;SDS011;11249;52.468;13.776;2023-04-29T13:32:58;24.73;;;15.02;;
22166;SDS011;11249;52.468;13.776;2023-04-29T13:35:36;18.30;;;14.60;;
22166;SDS011;11249;52.468;13.776;2023-04-29T13:38:05;21.80;;;14.07;;
22166;SDS011;11249;52.468;13.776;2023-04-29T13:40:32;19.13;;;14.13;;
22166;SDS011;11249;52.468;13.776;2023-04-29T13:43:05;17.80;;;12.77;;
22166;SDS011;11249;52.468;13.776;2023-04-29T13:45:34;18.47;;;12.97;;
22166;SDS011;11249;52.468;13.776;2023-04-29T13:48:04;15.50;;;11.65;;
22166;SDS011;11249;52.468;13.776;2023-04-29T13:50:51;15.05;;;12.85;;
22166;SDS011;11249;52.468;13.776;2023-04-29T13:53:21;15.23;;;11.90;;
22166;SDS011;11249;52.468;13.776;2023-04-29T13:55:51;16.85;;;12.27;;
22166;SDS011;11249;52.468;13.776;2023-04-29T13:58:26;14.00;;;11.77;;
22166;SDS011;11249;52.468;13.776;2023-04-29T14:01:13;13.98;;;11.60;;
22166;SDS011;11249;52.468;13.776;2023-04-29T14:03:59;14.63;;;10.07;;
22166;SDS011;11249;52.468;13.776;2023-04-29T14:06:26;15.07;;;11.65;;
22166;SDS011;11249;52.468;13.776;2023-04-29T14:08:53;13.63;;;11.20;;
22166;SDS011;11249;52.468;13.776;2023-04-29T14:11:20;14.60;;;10.35;;
22166;SDS011;11249;52.468;13.776;2023-04-29T14:13:47;13.52;;;11.25;;
22166;SDS011;11249;52.468;13.776;2023-04-29T14:16:13;14.38;;;10.60;;
22166;SDS011;11249;52.468;13.776;2023-04-29T14:18:40;14.68;;;12.05;;
22166;SDS011;11249;52.468;13.776;2023-04-29T14:21:07;14.10;;;10.18;;
22166;SDS011;11249;52.468;13.776;2023-04-29T14:23:33;12.93;;;10.65;;
22166;SDS011;11249;52.468;13.776;2023-04-29T14:26:01;13.32;;;9.98;;
22166;SDS011;11249;52.468;13.776;2023-04-29T14:28:47;15.77;;;10.75;;
22166;SDS011;11249;52.468;13.776;2023-04-29T14:31:14;12.75;;;10.27;;
22166;SDS011;11249;52.468;13.776;2023-04-29T14:33:43;12.52;;;9.32;;
22166;SDS011;11249;52.468;13.776;2023-04-29T14:36:09;11.43;;;9.45;;
22166;SDS011;11249;52.468;13.776;2023-04-29T14:38:36;14.00;;;9.30;;
22166;SDS011;11249;52.468;13.776;2023-04-29T14:41:03;14.10;;;9.70;;
22166;SDS011;11249;52.468;13.776;2023-04-29T14:43:29;12.77;;;9.77;;